sensor_id;sensor_type;location;lat;lon;timestamp;P1;durP1;ratioP1;P2;durP2;ratioP2
21860;SDS011;11095;48.066;8.540;2023-12-20T00:00:19;2.50;;;1.83;;
21860;SDS011;11095;48.066;8.540;2023-12-20T00:02:45;2.50;;;2.00;;
21860;SDS011;11095;48.066;8.540;2023-12-20T00:05:12;2.30;;;2.00;;
21860;SDS011;11095;48.066;8.540;2023-12-20T00:07:39;2.33;;;1.88;;
21860;SDS011;11095;48.066;8.540;2023-12-20T00:10:05;1.90;;;1.40;;
21860;SDS011;11095;48.066;8.540;2023-12-20T00:12:30;2.08;;;1.65;;
21860;SDS011;11095;48.066;8.540;2023-12-20T00:14:56;1.92;;;1.40;;
21860;SDS011;11095;48.066;8.540;2023-12-20T00:17:22;1.65;;;1.40;;
21860;SDS011;11095;48.066;8.540;2023-12-20T00:19:47;2.25;;;1.80;;
21860;SDS011;11095;48.066;8.540;2023-12-20T00:22:13;2.60;;;1.95;;
21860;SDS011;11095;48.066;8.540;2023-12-20T00:24:38;3.00;;;2.03;;
21860;SDS011;11095;48.066;8.540;2023-12-20T00:27:04;1.92;;;1.73;;
21860;SDS011;11095;48.066;8.540;2023-12-20T00:29:29;1.90;;;1.70;;
21860;SDS011;11095;48.066;8.540;2023-12-20T00:31:55;2.45;;;1.77;;
21860;SDS011;11095;48.066;8.540;2023-12-20T00:34:20;3.10;;;1.73;;
21860;SDS011;11095;48.066;8.540;2023-12-20T00:36:46;2.20;;;2.00;;
21860;SDS011;11095;48.066;8.540;2023-12-20T00:39:12;2.75;;;2.10;;
21860;SDS011;11095;48.066;8.540;2023-12-20T00:41:38;3.20;;;1.92;;
21860;SDS011;11095;48.066;8.540;2023-12-20T00:44:03;2.45;;;2.00;;
21860;SDS011;11095;48.066;8.540;2023-12-20T00:46:29;2.40;;;1.80;;
21860;SDS011;11095;48.066;8.540;2023-12-20T00:48:55;1.73;;;1.60;;
21860;SDS011;11095;48.066;8.540;2023-12-20T00:51:20;2.40;;;1.60;;
21860;SDS011;11095;48.066;8.540;2023-12-20T00:53:47;2.17;;;1.80;;
21860;SDS011;11095;48.066;8.540;2023-12-20T00:56:14;2.05;;;1.48;;
21860;SDS011;11095;48.066;8.540;2023-12-20T00:58:39;1.67;;;1.40;;
21860;SDS011;11095;48.066;8.540;2023-12-20T01:01:05;1.50;;;1.20;;
21860;SDS011;11095;48.066;8.540;2023-12-20T01:03:31;1.30;;;1.20;;
21860;SDS011;11095;48.066;8.540;2023-12-20T01:05:56;1.40;;;1.30;;
21860;SDS011;11095;48.066;8.540;2023-12-20T01:08:22;1.98;;;1.50;;
21860;SDS011;11095;48.066;8.540;2023-12-20T01:10:48;1.45;;;1.27;;
21860;SDS011;11095;48.066;8.540;2023-12-20T01:13:13;1.60;;;1.40;;
21860;SDS011;11095;48.066;8.540;2023-12-20T01:15:39;1.80;;;1.38;;
21860;SDS011;11095;48.066;8.540;2023-12-20T01:18:04;1.35;;;1.10;;
21860;SDS011;11095;48.066;8.540;2023-12-20T01:20:30;1.30;;;1.20;;
21860;SDS011;11095;48.066;8.540;2023-12-20T01:22:56;1.27;;;1.17;;
21860;SDS011;11095;48.066;8.540;2023-12-20T01:25:21;1.13;;;0.98;;
21860;SDS011;11095;48.066;8.540;2023-12-20T01:27:47;1.45;;;1.10;;
21860;SDS011;11095;48.066;8.540;2023-12-20T01:30:13;1.00;;;0.90;;
21860;SDS011;11095;48.066;8.540;2023-12-20T01:32:39;1.20;;;1.00;;
21860;SDS011;11095;48.066;8.540;2023-12-20T01:35:04;0.80;;;0.80;;
21860;SDS011;11095;48.066;8.540;2023-12-20T01:37:30;0.80;;;0.80;;
21860;SDS011;11095;48.066;8.540;2023-12-20T01:39:55;1.00;;;0.80;;
21860;SDS011;11095;48.066;8.540;2023-12-20T01:42:21;0.80;;;0.80;;
21860;SDS011;11095;48.066;8.540;2023-12-20T01:44:47;1.45;;;0.90;;
21860;SDS011;11095;48.066;8.540;2023-12-20T01:47:13;0.90;;;0.80;;
21860;SDS011;11095;48.066;8.540;2023-12-20T01:49:38;1.20;;;1.00;;
21860;SDS011;11095;48.066;8.540;2023-12-20T01:52:04;1.05;;;0.90;;
21860;SDS011;11095;48.066;8.540;2023-12-20T01:54:31;0.95;;;0.90;;
21860;SDS011;11095;48.066;8.540;2023-12-20T01:56:57;1.00;;;0.85;;
21860;SDS011;11095;48.066;8.540;2023-12-20T01:59:22;1.10;;;1.00;;
21860;SDS011;11095;48.066;8.540;2023-12-20T02:01:48;0.95;;;0.85;;
21860;SDS011;11095;48.066;8.540;2023-12-20T02:04:14;1.02;;;0.90;;
21860;SDS011;11095;48.066;8.540;2023-12-20T02:06:40;0.98;;;0.88;;
21860;SDS011;11095;48.066;8.540;2023-12-20T02:09:07;1.10;;;1.00;;
21860;SDS011;11095;48.066;8.540;2023-12-20T02:11:33;1.40;;;1.10;;
21860;SDS011;11095;48.066;8.540;2023-12-20T02:14:01;1.23;;;1.00;;
21860;SDS011;11095;48.066;8.540;2023-12-20T02:16:26;2.20;;;1.42;;
21860;SDS011;11095;48.066;8.540;2023-12-20T02:18:52;2.10;;;1.45;;
21860;SDS011;11095;48.066;8.540;2023-12-20T02:21:18;2.10;;;1.48;;
21860;SDS011;11095;48.066;8.540;2023-12-20T02:23:45;1.85;;;1.40;;
21860;SDS011;11095;48.066;8.540;2023-12-20T02:26:11;1.35;;;1.17;;
21860;SDS011;11095;48.066;8.540;2023-12-20T02:28:38;1.70;;;1.10;;
21860;SDS011;11095;48.066;8.540;2023-12-20T02:31:04;1.00;;;0.80;;
21860;SDS011;11095;48.066;8.540;2023-12-20T02:33:30;1.02;;;0.90;;
21860;SDS011;11095;48.066;8.540;2023-12-20T02:35:55;1.27;;;1.00;;
21860;SDS011;11095;48.066;8.540;2023-12-20T02:38:21;1.30;;;0.88;;
21860;SDS011;11095;48.066;8.540;2023-12-20T02:40:46;0.73;;;0.60;;
21860;SDS011;11095;48.066;8.540;2023-12-20T02:43:12;0.45;;;0.30;;
21860;SDS011;11095;48.066;8.540;2023-12-20T02:45:37;0.38;;;0.38;;
21860;SDS011;11095;48.066;8.540;2023-12-20T02:48:03;0.20;;;0.20;;
21860;SDS011;11095;48.066;8.540;2023-12-20T02:50:29;0.28;;;0.22;;
21860;SDS011;11095;48.066;8.540;2023-12-20T02:52:54;0.20;;;0.20;;
21860;SDS011;11095;48.066;8.540;2023-12-20T02:55:20;0.30;;;0.20;;
21860;SDS011;11095;48.066;8.540;2023-12-20T02:57:46;0.20;;;0.20;;
21860;SDS011;11095;48.066;8.540;2023-12-20T03:00:12;0.20;;;0.20;;
21860;SDS011;11095;48.066;8.540;2023-12-20T03:02:37;0.88;;;0.20;;
21860;SDS011;11095;48.066;8.540;2023-12-20T03:05:03;0.30;;;0.30;;
21860;SDS011;11095;48.066;8.540;2023-12-20T03:07:29;0.20;;;0.20;;
21860;SDS011;11095;48.066;8.540;2023-12-20T03:09:54;0.30;;;0.28;;
21860;SDS011;11095;48.066;8.540;2023-12-20T03:12:20;0.47;;;0.20;;
21860;SDS011;11095;48.066;8.540;2023-12-20T03:14:45;0.20;;;0.20;;
21860;SDS011;11095;48.066;8.540;2023-12-20T03:17:11;0.30;;;0.30;;
21860;SDS011;11095;48.066;8.540;2023-12-20T03:19:36;0.20;;;0.20;;
21860;SDS011;11095;48.066;8.540;2023-12-20T03:22:02;0.63;;;0.17;;
21860;SDS011;11095;48.066;8.540;2023-12-20T03:24:28;0.85;;;0.20;;
21860;SDS011;11095;48.066;8.540;2023-12-20T03:26:53;0.35;;;0.30;;
21860;SDS011;11095;48.066;8.540;2023-12-20T03:29:19;0.20;;;0.20;;
21860;SDS011;11095;48.066;8.540;2023-12-20T03:31:44;0.20;;;0.20;;
21860;SDS011;11095;48.066;8.540;2023-12-20T03:34:10;1.02;;;0.30;;
21860;SDS011;11095;48.066;8.540;2023-12-20T03:36:36;0.52;;;0.20;;
21860;SDS011;11095;48.066;8.540;2023-12-20T03:39:02;0.10;;;0.10;;
21860;SDS011;11095;48.066;8.540;2023-12-20T03:41:27;0.20;;;0.20;;
21860;SDS011;11095;48.066;8.540;2023-12-20T03:43:53;0.20;;;0.20;;
21860;SDS011;11095;48.066;8.540;2023-12-20T03:46:19;0.22;;;0.22;;
21860;SDS011;11095;48.066;8.540;2023-12-20T03:48:44;0.10;;;0.10;;
21860;SDS011;11095;48.066;8.540;2023-12-20T03:51:10;0.20;;;0.20;;
21860;SDS011;11095;48.066;8.540;2023-12-20T03:53:35;0.25;;;0.25;;
21860;SDS011;11095;48.066;8.540;2023-12-20T03:56:01;0.28;;;0.20;;
21860;SDS011;11095;48.066;8.540;2023-12-20T03:58:26;0.20;;;0.20;;
21860;SDS011;11095;48.066;8.540;2023-12-20T04:00:52;0.20;;;0.20;;
21860;SDS011;11095;48.066;8.540;2023-12-20T04:03:18;0.30;;;0.30;;
21860;SDS011;11095;48.066;8.540;2023-12-20T04:05:43;0.30;;;0.30;;
21860;SDS011;11095;48.066;8.540;2023-12-20T04:08:09;0.30;;;0.30;;
21860;SDS011;11095;48.066;8.540;2023-12-20T04:10:35;0.32;;;0.32;;
21860;SDS011;11095;48.066;8.540;2023-12-20T04:13:02;0.25;;;0.20;;
21860;SDS011;11095;48.066;8.540;2023-12-20T04:15:28;0.85;;;0.30;;
21860;SDS011;11095;48.066;8.540;2023-12-20T04:17:53;0.30;;;0.30;;
21860;SDS011;11095;48.066;8.540;2023-12-20T04:20:19;0.30;;;0.30;;
21860;SDS011;11095;48.066;8.540;2023-12-20T04:22:44;0.57;;;0.50;;
21860;SDS011;11095;48.066;8.540;2023-12-20T04:25:10;0.57;;;0.40;;
21860;SDS011;11095;48.066;8.540;2023-12-20T04:27:36;0.30;;;0.30;;
21860;SDS011;11095;48.066;8.540;2023-12-20T04:30:01;0.85;;;0.30;;
21860;SDS011;11095;48.066;8.540;2023-12-20T04:32:27;0.30;;;0.30;;
21860;SDS011;11095;48.066;8.540;2023-12-20T04:34:53;0.20;;;0.20;;
21860;SDS011;11095;48.066;8.540;2023-12-20T04:37:18;0.20;;;0.20;;
21860;SDS011;11095;48.066;8.540;2023-12-20T04:39:44;0.20;;;0.20;;
21860;SDS011;11095;48.066;8.540;2023-12-20T04:42:09;0.30;;;0.20;;
21860;SDS011;11095;48.066;8.540;2023-12-20T04:44:35;0.20;;;0.20;;
21860;SDS011;11095;48.066;8.540;2023-12-20T04:47:01;0.50;;;0.30;;
21860;SDS011;11095;48.066;8.540;2023-12-20T04:49:26;0.30;;;0.30;;
21860;SDS011;11095;48.066;8.540;2023-12-20T04:51:52;0.28;;;0.28;;
21860;SDS011;11095;48.066;8.540;2023-12-20T04:54:17;0.25;;;0.25;;
21860;SDS011;11095;48.066;8.540;2023-12-20T04:56:43;0.30;;;0.30;;
21860;SDS011;11095;48.066;8.540;2023-12-20T04:59:08;0.38;;;0.30;;
21860;SDS011;11095;48.066;8.540;2023-12-20T05:01:34;0.60;;;0.40;;
21860;SDS011;11095;48.066;8.540;2023-12-20T05:03:59;0.50;;;0.50;;
21860;SDS011;11095;48.066;8.540;2023-12-20T05:06:25;0.98;;;0.40;;
21860;SDS011;11095;48.066;8.540;2023-12-20T05:08:51;0.95;;;0.40;;
21860;SDS011;11095;48.066;8.540;2023-12-20T05:11:16;0.40;;;0.40;;
21860;SDS011;11095;48.066;8.540;2023-12-20T05:13:42;0.70;;;0.70;;
21860;SDS011;11095;48.066;8.540;2023-12-20T05:16:07;1.58;;;0.90;;
21860;SDS011;11095;48.066;8.540;2023-12-20T05:18:34;3.60;;;1.58;;
21860;SDS011;11095;48.066;8.540;2023-12-20T05:20:59;3.80;;;1.80;;
21860;SDS011;11095;48.066;8.540;2023-12-20T05:23:25;2.33;;;1.40;;
21860;SDS011;11095;48.066;8.540;2023-12-20T05:25:51;2.08;;;1.30;;
21860;SDS011;11095;48.066;8.540;2023-12-20T05:28:16;1.20;;;1.00;;
21860;SDS011;11095;48.066;8.540;2023-12-20T05:30:42;1.50;;;1.10;;
21860;SDS011;11095;48.066;8.540;2023-12-20T05:33:08;1.02;;;0.68;;
21860;SDS011;11095;48.066;8.540;2023-12-20T05:35:34;0.60;;;0.50;;
21860;SDS011;11095;48.066;8.540;2023-12-20T05:37:59;0.85;;;0.47;;
21860;SDS011;11095;48.066;8.540;2023-12-20T05:40:25;0.35;;;0.35;;
21860;SDS011;11095;48.066;8.540;2023-12-20T05:42:51;0.30;;;0.30;;
21860;SDS011;11095;48.066;8.540;2023-12-20T05:45:16;0.40;;;0.32;;
21860;SDS011;11095;48.066;8.540;2023-12-20T05:47:42;0.40;;;0.40;;
21860;SDS011;11095;48.066;8.540;2023-12-20T05:50:07;0.30;;;0.30;;
21860;SDS011;11095;48.066;8.540;2023-12-20T05:52:34;0.60;;;0.40;;
21860;SDS011;11095;48.066;8.540;2023-12-20T05:54:59;0.82;;;0.40;;
21860;SDS011;11095;48.066;8.540;2023-12-20T05:57:26;0.50;;;0.50;;
21860;SDS011;11095;48.066;8.540;2023-12-20T05:59:52;1.33;;;0.60;;
21860;SDS011;11095;48.066;8.540;2023-12-20T06:02:18;1.25;;;0.88;;
21860;SDS011;11095;48.066;8.540;2023-12-20T06:04:43;1.27;;;1.00;;
21860;SDS011;11095;48.066;8.540;2023-12-20T06:07:11;1.65;;;0.90;;
21860;SDS011;11095;48.066;8.540;2023-12-20T06:09:37;1.17;;;0.80;;
21860;SDS011;11095;48.066;8.540;2023-12-20T06:12:02;2.65;;;1.30;;
21860;SDS011;11095;48.066;8.540;2023-12-20T06:14:28;2.42;;;0.82;;
21860;SDS011;11095;48.066;8.540;2023-12-20T06:16:55;1.20;;;0.80;;
21860;SDS011;11095;48.066;8.540;2023-12-20T06:19:21;1.30;;;1.00;;
21860;SDS011;11095;48.066;8.540;2023-12-20T06:21:47;1.00;;;0.88;;
21860;SDS011;11095;48.066;8.540;2023-12-20T06:24:13;0.98;;;0.75;;
21860;SDS011;11095;48.066;8.540;2023-12-20T06:26:38;0.90;;;0.75;;
21860;SDS011;11095;48.066;8.540;2023-12-20T06:29:04;2.10;;;0.90;;
21860;SDS011;11095;48.066;8.540;2023-12-20T06:31:29;0.90;;;0.70;;
21860;SDS011;11095;48.066;8.540;2023-12-20T06:33:55;2.13;;;0.82;;
21860;SDS011;11095;48.066;8.540;2023-12-20T06:36:22;1.33;;;1.15;;
21860;SDS011;11095;48.066;8.540;2023-12-20T06:38:48;1.15;;;0.82;;
21860;SDS011;11095;48.066;8.540;2023-12-20T06:41:14;1.38;;;0.85;;
21860;SDS011;11095;48.066;8.540;2023-12-20T06:43:41;1.30;;;0.80;;
21860;SDS011;11095;48.066;8.540;2023-12-20T06:46:07;1.45;;;0.95;;
21860;SDS011;11095;48.066;8.540;2023-12-20T06:48:33;1.95;;;0.90;;
21860;SDS011;11095;48.066;8.540;2023-12-20T06:51:00;1.45;;;1.10;;
21860;SDS011;11095;48.066;8.540;2023-12-20T06:53:27;2.42;;;1.02;;
21860;SDS011;11095;48.066;8.540;2023-12-20T06:55:52;1.52;;;0.90;;
21860;SDS011;11095;48.066;8.540;2023-12-20T06:58:18;1.05;;;0.95;;
21860;SDS011;11095;48.066;8.540;2023-12-20T07:00:43;2.10;;;1.05;;
21860;SDS011;11095;48.066;8.540;2023-12-20T07:03:09;1.40;;;1.08;;
21860;SDS011;11095;48.066;8.540;2023-12-20T07:05:35;1.17;;;0.82;;
21860;SDS011;11095;48.066;8.540;2023-12-20T07:08:00;0.68;;;0.60;;
21860;SDS011;11095;48.066;8.540;2023-12-20T07:10:26;1.10;;;0.70;;
21860;SDS011;11095;48.066;8.540;2023-12-20T07:12:52;1.10;;;1.00;;
21860;SDS011;11095;48.066;8.540;2023-12-20T07:15:20;1.95;;;1.58;;
21860;SDS011;11095;48.066;8.540;2023-12-20T07:17:46;1.42;;;1.27;;
21860;SDS011;11095;48.066;8.540;2023-12-20T07:20:11;2.00;;;1.50;;
21860;SDS011;11095;48.066;8.540;2023-12-20T07:22:38;2.20;;;1.50;;
21860;SDS011;11095;48.066;8.540;2023-12-20T07:25:04;1.90;;;1.50;;
21860;SDS011;11095;48.066;8.540;2023-12-20T07:27:30;2.10;;;1.58;;
21860;SDS011;11095;48.066;8.540;2023-12-20T07:29:55;2.42;;;1.70;;
21860;SDS011;11095;48.066;8.540;2023-12-20T07:32:21;2.10;;;1.70;;
21860;SDS011;11095;48.066;8.540;2023-12-20T07:34:47;2.35;;;1.98;;
21860;SDS011;11095;48.066;8.540;2023-12-20T07:37:12;2.47;;;1.98;;
21860;SDS011;11095;48.066;8.540;2023-12-20T07:39:41;2.40;;;1.85;;
21860;SDS011;11095;48.066;8.540;2023-12-20T07:42:07;2.60;;;2.30;;
21860;SDS011;11095;48.066;8.540;2023-12-20T07:44:34;2.83;;;2.20;;
21860;SDS011;11095;48.066;8.540;2023-12-20T07:47:00;3.25;;;2.28;;
21860;SDS011;11095;48.066;8.540;2023-12-20T07:49:26;3.65;;;2.92;;
21860;SDS011;11095;48.066;8.540;2023-12-20T07:51:52;4.53;;;3.20;;
21860;SDS011;11095;48.066;8.540;2023-12-20T07:54:17;4.10;;;2.90;;
21860;SDS011;11095;48.066;8.540;2023-12-20T07:56:43;6.18;;;3.40;;
21860;SDS011;11095;48.066;8.540;2023-12-20T07:59:09;5.70;;;3.30;;
21860;SDS011;11095;48.066;8.540;2023-12-20T08:01:34;4.35;;;3.42;;
21860;SDS011;11095;48.066;8.540;2023-12-20T08:04:00;5.07;;;3.60;;
21860;SDS011;11095;48.066;8.540;2023-12-20T08:06:25;4.90;;;3.45;;
21860;SDS011;11095;48.066;8.540;2023-12-20T08:08:51;4.55;;;3.08;;
21860;SDS011;11095;48.066;8.540;2023-12-20T08:11:16;4.10;;;3.22;;
21860;SDS011;11095;48.066;8.540;2023-12-20T08:13:42;5.30;;;3.50;;
21860;SDS011;11095;48.066;8.540;2023-12-20T08:16:08;4.18;;;3.15;;
21860;SDS011;11095;48.066;8.540;2023-12-20T08:18:34;3.92;;;3.03;;
21860;SDS011;11095;48.066;8.540;2023-12-20T08:20:59;3.65;;;2.85;;
21860;SDS011;11095;48.066;8.540;2023-12-20T08:23:26;4.57;;;3.58;;
21860;SDS011;11095;48.066;8.540;2023-12-20T08:25:52;3.33;;;2.72;;
21860;SDS011;11095;48.066;8.540;2023-12-20T08:28:17;4.43;;;2.65;;
21860;SDS011;11095;48.066;8.540;2023-12-20T08:30:43;3.50;;;2.67;;
21860;SDS011;11095;48.066;8.540;2023-12-20T08:33:08;4.50;;;2.60;;
21860;SDS011;11095;48.066;8.540;2023-12-20T08:35:37;2.40;;;1.98;;
21860;SDS011;11095;48.066;8.540;2023-12-20T08:38:03;2.40;;;2.15;;
21860;SDS011;11095;48.066;8.540;2023-12-20T08:40:29;2.13;;;1.90;;
21860;SDS011;11095;48.066;8.540;2023-12-20T08:42:55;2.40;;;1.80;;
21860;SDS011;11095;48.066;8.540;2023-12-20T08:45:20;3.08;;;1.70;;
21860;SDS011;11095;48.066;8.540;2023-12-20T08:47:46;2.78;;;1.70;;
21860;SDS011;11095;48.066;8.540;2023-12-20T08:50:12;2.40;;;1.80;;
21860;SDS011;11095;48.066;8.540;2023-12-20T08:52:37;2.45;;;1.80;;
21860;SDS011;11095;48.066;8.540;2023-12-20T08:55:03;1.70;;;1.27;;
21860;SDS011;11095;48.066;8.540;2023-12-20T08:57:29;1.42;;;1.30;;
21860;SDS011;11095;48.066;8.540;2023-12-20T08:59:56;2.03;;;1.60;;
21860;SDS011;11095;48.066;8.540;2023-12-20T09:02:22;1.83;;;1.23;;
21860;SDS011;11095;48.066;8.540;2023-12-20T09:04:48;1.50;;;1.17;;
21860;SDS011;11095;48.066;8.540;2023-12-20T09:07:23;2.60;;;1.10;;
21860;SDS011;11095;48.066;8.540;2023-12-20T09:09:50;1.58;;;1.10;;
21860;SDS011;11095;48.066;8.540;2023-12-20T09:12:17;2.47;;;1.35;;
21860;SDS011;11095;48.066;8.540;2023-12-20T09:17:12;2.30;;;1.30;;
21860;SDS011;11095;48.066;8.540;2023-12-20T09:19:38;3.92;;;1.40;;
21860;SDS011;11095;48.066;8.540;2023-12-20T09:22:04;3.25;;;1.33;;
21860;SDS011;11095;48.066;8.540;2023-12-20T09:24:30;2.97;;;1.50;;
21860;SDS011;11095;48.066;8.540;2023-12-20T09:26:56;3.45;;;1.40;;
21860;SDS011;11095;48.066;8.540;2023-12-20T09:29:22;1.90;;;1.38;;
21860;SDS011;11095;48.066;8.540;2023-12-20T09:31:48;2.10;;;1.50;;
21860;SDS011;11095;48.066;8.540;2023-12-20T09:34:15;4.20;;;1.83;;
21860;SDS011;11095;48.066;8.540;2023-12-20T09:36:41;2.13;;;1.60;;
21860;SDS011;11095;48.066;8.540;2023-12-20T09:39:12;1.98;;;1.45;;
21860;SDS011;11095;48.066;8.540;2023-12-20T09:41:39;1.90;;;1.42;;
21860;SDS011;11095;48.066;8.540;2023-12-20T09:44:08;1.05;;;0.70;;
21860;SDS011;11095;48.066;8.540;2023-12-20T09:46:43;1.30;;;0.68;;
21860;SDS011;11095;48.066;8.540;2023-12-20T09:49:10;1.00;;;0.68;;
21860;SDS011;11095;48.066;8.540;2023-12-20T09:51:36;1.10;;;0.90;;
21860;SDS011;11095;48.066;8.540;2023-12-20T09:54:04;0.70;;;0.70;;
21860;SDS011;11095;48.066;8.540;2023-12-20T09:56:30;0.65;;;0.65;;
21860;SDS011;11095;48.066;8.540;2023-12-20T09:58:56;0.60;;;0.60;;
21860;SDS011;11095;48.066;8.540;2023-12-20T10:01:22;0.68;;;0.63;;
21860;SDS011;11095;48.066;8.540;2023-12-20T10:03:49;1.00;;;0.70;;
21860;SDS011;11095;48.066;8.540;2023-12-20T10:06:19;0.88;;;0.82;;
21860;SDS011;11095;48.066;8.540;2023-12-20T10:08:45;1.80;;;1.58;;
21860;SDS011;11095;48.066;8.540;2023-12-20T10:11:10;1.15;;;1.05;;
21860;SDS011;11095;48.066;8.540;2023-12-20T10:13:40;1.58;;;1.10;;
21860;SDS011;11095;48.066;8.540;2023-12-20T10:16:06;1.20;;;1.10;;
21860;SDS011;11095;48.066;8.540;2023-12-20T10:18:32;3.03;;;1.27;;
21860;SDS011;11095;48.066;8.540;2023-12-20T10:20:58;2.38;;;1.20;;
21860;SDS011;11095;48.066;8.540;2023-12-20T10:23:25;1.83;;;1.20;;
21860;SDS011;11095;48.066;8.540;2023-12-20T10:25:57;2.80;;;1.42;;
21860;SDS011;11095;48.066;8.540;2023-12-20T10:28:24;1.88;;;1.30;;
21860;SDS011;11095;48.066;8.540;2023-12-20T10:30:52;1.48;;;1.15;;
21860;SDS011;11095;48.066;8.540;2023-12-20T10:33:25;2.67;;;1.70;;
21860;SDS011;11095;48.066;8.540;2023-12-20T10:35:51;2.35;;;1.50;;
21860;SDS011;11095;48.066;8.540;2023-12-20T10:38:18;1.50;;;1.40;;
21860;SDS011;11095;48.066;8.540;2023-12-20T10:40:45;1.30;;;1.20;;
21860;SDS011;11095;48.066;8.540;2023-12-20T10:43:11;2.95;;;1.45;;
21860;SDS011;11095;48.066;8.540;2023-12-20T10:45:37;2.45;;;1.13;;
21860;SDS011;11095;48.066;8.540;2023-12-20T10:48:03;2.22;;;1.30;;
21860;SDS011;11095;48.066;8.540;2023-12-20T10:50:30;1.60;;;1.40;;
21860;SDS011;11095;48.066;8.540;2023-12-20T10:52:57;2.47;;;1.50;;
21860;SDS011;11095;48.066;8.540;2023-12-20T10:55:23;2.47;;;1.50;;
21860;SDS011;11095;48.066;8.540;2023-12-20T10:57:54;2.22;;;1.55;;
21860;SDS011;11095;48.066;8.540;2023-12-20T11:00:26;2.15;;;1.60;;
21860;SDS011;11095;48.066;8.540;2023-12-20T11:02:53;1.85;;;1.60;;
21860;SDS011;11095;48.066;8.540;2023-12-20T11:11:12;2.40;;;1.63;;
21860;SDS011;11095;48.066;8.540;2023-12-20T11:16:23;1.42;;;1.10;;
21860;SDS011;11095;48.066;8.540;2023-12-20T11:18:50;1.30;;;1.20;;
21860;SDS011;11095;48.066;8.540;2023-12-20T11:21:16;1.50;;;1.40;;
21860;SDS011;11095;48.066;8.540;2023-12-20T11:23:42;1.20;;;1.10;;
21860;SDS011;11095;48.066;8.540;2023-12-20T11:26:07;1.65;;;1.40;;
21860;SDS011;11095;48.066;8.540;2023-12-20T11:28:33;1.42;;;1.33;;
21860;SDS011;11095;48.066;8.540;2023-12-20T11:31:00;2.83;;;1.48;;
21860;SDS011;11095;48.066;8.540;2023-12-20T11:33:29;1.70;;;1.20;;
21860;SDS011;11095;48.066;8.540;2023-12-20T11:36:00;1.63;;;1.13;;
21860;SDS011;11095;48.066;8.540;2023-12-20T11:38:27;1.52;;;1.27;;
21860;SDS011;11095;48.066;8.540;2023-12-20T11:41:00;1.95;;;1.27;;
21860;SDS011;11095;48.066;8.540;2023-12-20T11:43:35;1.40;;;1.30;;
21860;SDS011;11095;48.066;8.540;2023-12-20T11:46:02;2.20;;;1.20;;
21860;SDS011;11095;48.066;8.540;2023-12-20T11:48:34;2.15;;;1.42;;
21860;SDS011;11095;48.066;8.540;2023-12-20T11:51:00;1.55;;;1.33;;
21860;SDS011;11095;48.066;8.540;2023-12-20T11:53:27;4.57;;;1.70;;
21860;SDS011;11095;48.066;8.540;2023-12-20T11:55:54;2.25;;;1.77;;
21860;SDS011;11095;48.066;8.540;2023-12-20T11:58:19;2.38;;;1.77;;
21860;SDS011;11095;48.066;8.540;2023-12-20T12:00:45;3.67;;;1.50;;
21860;SDS011;11095;48.066;8.540;2023-12-20T12:03:14;2.38;;;1.38;;
21860;SDS011;11095;48.066;8.540;2023-12-20T12:05:40;2.43;;;1.80;;
21860;SDS011;11095;48.066;8.540;2023-12-20T12:08:06;2.85;;;1.40;;
21860;SDS011;11095;48.066;8.540;2023-12-20T12:10:32;3.28;;;1.48;;
21860;SDS011;11095;48.066;8.540;2023-12-20T12:12:58;3.08;;;1.70;;
21860;SDS011;11095;48.066;8.540;2023-12-20T12:15:24;1.60;;;1.50;;
21860;SDS011;11095;48.066;8.540;2023-12-20T12:17:54;2.30;;;1.60;;
21860;SDS011;11095;48.066;8.540;2023-12-20T12:20:20;2.65;;;1.80;;
21860;SDS011;11095;48.066;8.540;2023-12-20T12:22:46;3.65;;;1.80;;
21860;SDS011;11095;48.066;8.540;2023-12-20T12:25:22;2.45;;;1.75;;
21860;SDS011;11095;48.066;8.540;2023-12-20T12:27:48;2.40;;;1.60;;
21860;SDS011;11095;48.066;8.540;2023-12-20T12:30:16;2.47;;;1.80;;
21860;SDS011;11095;48.066;8.540;2023-12-20T12:32:43;4.53;;;1.70;;
21860;SDS011;11095;48.066;8.540;2023-12-20T12:35:09;3.35;;;1.73;;
21860;SDS011;11095;48.066;8.540;2023-12-20T12:37:36;3.90;;;1.75;;
21860;SDS011;11095;48.066;8.540;2023-12-20T12:40:04;4.53;;;1.50;;
21860;SDS011;11095;48.066;8.540;2023-12-20T12:42:31;4.68;;;1.73;;
21860;SDS011;11095;48.066;8.540;2023-12-20T12:44:57;2.03;;;1.45;;
21860;SDS011;11095;48.066;8.540;2023-12-20T12:47:22;3.63;;;1.23;;
21860;SDS011;11095;48.066;8.540;2023-12-20T12:49:49;3.30;;;1.40;;
21860;SDS011;11095;48.066;8.540;2023-12-20T12:52:16;2.17;;;1.38;;
21860;SDS011;11095;48.066;8.540;2023-12-20T12:54:41;2.47;;;1.50;;
21860;SDS011;11095;48.066;8.540;2023-12-20T12:57:07;2.65;;;1.60;;
21860;SDS011;11095;48.066;8.540;2023-12-20T12:59:33;2.00;;;1.38;;
21860;SDS011;11095;48.066;8.540;2023-12-20T13:01:59;2.30;;;1.50;;
21860;SDS011;11095;48.066;8.540;2023-12-20T13:04:25;3.05;;;1.60;;
21860;SDS011;11095;48.066;8.540;2023-12-20T13:06:51;3.88;;;1.80;;
21860;SDS011;11095;48.066;8.540;2023-12-20T13:09:16;4.03;;;1.70;;
21860;SDS011;11095;48.066;8.540;2023-12-20T13:11:43;4.72;;;1.63;;
21860;SDS011;11095;48.066;8.540;2023-12-20T13:14:09;2.72;;;1.40;;
21860;SDS011;11095;48.066;8.540;2023-12-20T13:16:39;1.40;;;1.00;;
21860;SDS011;11095;48.066;8.540;2023-12-20T13:19:04;4.90;;;1.60;;
21860;SDS011;11095;48.066;8.540;2023-12-20T13:21:30;1.65;;;1.23;;
21860;SDS011;11095;48.066;8.540;2023-12-20T13:23:55;6.63;;;1.50;;
21860;SDS011;11095;48.066;8.540;2023-12-20T13:26:21;4.18;;;1.70;;
21860;SDS011;11095;48.066;8.540;2023-12-20T13:28:47;3.22;;;1.75;;
21860;SDS011;11095;48.066;8.540;2023-12-20T13:31:12;4.13;;;1.60;;
21860;SDS011;11095;48.066;8.540;2023-12-20T13:33:38;4.22;;;1.40;;
21860;SDS011;11095;48.066;8.540;2023-12-20T13:36:05;5.15;;;1.52;;
21860;SDS011;11095;48.066;8.540;2023-12-20T13:38:31;4.30;;;1.63;;
21860;SDS011;11095;48.066;8.540;2023-12-20T13:40:57;2.22;;;1.40;;
21860;SDS011;11095;48.066;8.540;2023-12-20T13:43:23;4.55;;;1.60;;
21860;SDS011;11095;48.066;8.540;2023-12-20T13:45:49;3.17;;;1.27;;
21860;SDS011;11095;48.066;8.540;2023-12-20T13:48:15;5.97;;;1.80;;
21860;SDS011;11095;48.066;8.540;2023-12-20T13:50:41;6.20;;;1.60;;
21860;SDS011;11095;48.066;8.540;2023-12-20T13:53:07;2.90;;;1.00;;
21860;SDS011;11095;48.066;8.540;2023-12-20T13:55:32;5.30;;;1.70;;
21860;SDS011;11095;48.066;8.540;2023-12-20T13:57:58;5.70;;;1.52;;
21860;SDS011;11095;48.066;8.540;2023-12-20T14:00:23;3.28;;;1.33;;
21860;SDS011;11095;48.066;8.540;2023-12-20T14:02:49;3.65;;;1.40;;
21860;SDS011;11095;48.066;8.540;2023-12-20T14:05:15;6.15;;;1.80;;
21860;SDS011;11095;48.066;8.540;2023-12-20T14:07:43;7.00;;;1.63;;
21860;SDS011;11095;48.066;8.540;2023-12-20T14:10:12;3.20;;;1.40;;
21860;SDS011;11095;48.066;8.540;2023-12-20T14:12:38;4.15;;;1.30;;
21860;SDS011;11095;48.066;8.540;2023-12-20T14:15:04;3.33;;;1.42;;
21860;SDS011;11095;48.066;8.540;2023-12-20T14:17:35;3.13;;;1.60;;
21860;SDS011;11095;48.066;8.540;2023-12-20T14:20:05;4.85;;;1.70;;
21860;SDS011;11095;48.066;8.540;2023-12-20T14:22:34;3.95;;;1.90;;
21860;SDS011;11095;48.066;8.540;2023-12-20T14:25:00;3.90;;;1.98;;
21860;SDS011;11095;48.066;8.540;2023-12-20T14:27:27;5.03;;;1.90;;
21860;SDS011;11095;48.066;8.540;2023-12-20T14:29:53;5.35;;;1.45;;
21860;SDS011;11095;48.066;8.540;2023-12-20T14:32:19;4.78;;;1.70;;
21860;SDS011;11095;48.066;8.540;2023-12-20T14:34:45;4.68;;;1.77;;
21860;SDS011;11095;48.066;8.540;2023-12-20T14:37:11;3.53;;;1.58;;
21860;SDS011;11095;48.066;8.540;2023-12-20T14:39:37;4.47;;;1.40;;
21860;SDS011;11095;48.066;8.540;2023-12-20T14:42:09;4.22;;;1.50;;
21860;SDS011;11095;48.066;8.540;2023-12-20T14:44:37;4.18;;;1.38;;
21860;SDS011;11095;48.066;8.540;2023-12-20T14:47:03;3.90;;;1.10;;
21860;SDS011;11095;48.066;8.540;2023-12-20T14:49:30;5.18;;;1.80;;
21860;SDS011;11095;48.066;8.540;2023-12-20T14:51:56;4.15;;;1.83;;